Haikou Meilan International Airport
ZJHK : now visible

Airfield :











YOU CAN JOIN US ON...

 
LOGIN :

Register | Disclaimer

   EN    FR    IT 

 









Legend :    VFR   Marginal VFR   IFR   Intensive IFR   Very Intensive IFR
Visi :
Ceiling :
>= 8 km
>= 3000ft
5 to 8 km
1000 to 3000 ft
1500m to 5 km
500 to 1000 ft
800 to 1500m
200 to 500 ft
< 800m
< 200 ft
Symbols :   Thunderstorms  Fog  Heavy snow  Heavy precipitations  Wind > 20 kt







- Airport Elevation : 75 ft
- IATA code : HAK


ZJHK - Haikou Meilan International

CURRENT METAR :
  • 210100Z 17004MPS 140V200 CAVOK 25/22 Q1016 NOSIG

EXPIRED METARs :
  • 210000Z VRB01MPS CAVOK 23/22 Q1016 NOSIG
  • 202300Z 13002MPS CAVOK 22/21 Q1015 NOSIG

TAF TAF ZJHK
Valid from the 21 at 00:00 until the 22 at 00:00 UTC


201905Z 2100/2124 17004MPS 9999 SCT020 TX32/2106Z TN22/2121Z
TEMPO 2106/2112 -TSRA SCT013 FEW026CB
ZJSA FIR / Asia



MET'MAP, your aeronautical weather chart ! - Copyright ORBIFLY December 2007 - Disclaimer

ORBIFLY MET'MAP TEAM :

Programming & Development : Alexandra Zaïnal
Concept & Development : Baudouin d'Aumeries
Co-Development & Prog : Marc-Olivier Méhu
Technical & hardware support : Manuel Goepfert

Contact : metmap@orbifly.com




SOURCES & CREDITS :

   NOAA       Earth
Advisory